createdAt,value
2018-11-11T00:00:37.824Z,995.22
2018-11-11T00:01:18.408Z,995.22
2018-11-11T00:01:58.743Z,995.19
2018-11-11T00:02:39.218Z,995.21
2018-11-11T00:03:19.555Z,995.23
2018-11-11T00:03:59.951Z,995.2
2018-11-11T00:04:40.628Z,995.22
2018-11-11T00:05:21.117Z,995.19
2018-11-11T00:06:01.566Z,995.2
2018-11-11T00:06:41.935Z,995.24
2018-11-11T00:07:22.334Z,995.17
2018-11-11T00:08:02.822Z,995.24
2018-11-11T00:08:43.194Z,995.21
2018-11-11T00:09:23.927Z,995.19
2018-11-11T00:10:04.336Z,995.21
2018-11-11T00:10:44.960Z,995.16
2018-11-11T00:11:25.224Z,995.12
2018-11-11T00:12:05.660Z,995.19
2018-11-11T00:12:46.099Z,995.17
2018-11-11T00:13:26.603Z,995.23
2018-11-11T00:14:07.005Z,995.19
2018-11-11T00:14:47.398Z,995.22
2018-11-11T00:15:27.852Z,995.17
2018-11-11T00:16:08.300Z,995.2
2018-11-11T00:16:48.716Z,995.13
2018-11-11T00:17:29.449Z,995.19
2018-11-11T00:18:09.778Z,995.15
2018-11-11T00:18:50.121Z,995.1
2018-11-11T00:19:30.540Z,995.04
2018-11-11T00:20:11.061Z,994.99
2018-11-11T00:20:51.369Z,995.06
2018-11-11T00:21:31.897Z,995.02
2018-11-11T00:22:12.235Z,995.05
2018-11-11T00:22:52.788Z,995.02
2018-11-11T00:23:33.314Z,995.04
2018-11-11T00:24:13.649Z,995.08
2018-11-11T00:24:54.085Z,995.02
2018-11-11T00:25:34.422Z,995.02
2018-11-11T00:26:14.842Z,995.08
2018-11-11T00:26:55.279Z,995.07
2018-11-11T00:27:35.702Z,995.08
2018-11-11T00:28:16.151Z,995.05
2018-11-11T00:28:56.612Z,995.14
2018-11-11T00:29:36.947Z,995.16
2018-11-11T00:30:17.344Z,995.12
2018-11-11T00:32:45.383Z,995.19
2018-11-11T00:33:25.608Z,995.24
2018-11-11T00:34:06.377Z,995.21
2018-11-11T00:34:46.720Z,995.15
2018-11-11T00:35:27.170Z,995.23
2018-11-11T00:36:07.616Z,995.26
2018-11-11T00:36:48.296Z,995.14
2018-11-11T00:37:28.495Z,995.16
2018-11-11T00:38:08.885Z,995.22
2018-11-11T00:38:49.275Z,995.32
2018-11-11T00:39:29.794Z,995.33
2018-11-11T00:40:10.183Z,995.2
2018-11-11T00:40:50.660Z,995.31
2018-11-11T00:41:30.985Z,995.38
2018-11-11T00:42:11.495Z,995.32
2018-11-11T00:42:53.695Z,995.44
2018-11-11T00:43:33.921Z,995.42
2018-11-11T00:44:14.333Z,995.43
2018-11-11T00:44:54.808Z,995.48
2018-11-11T00:45:35.194Z,995.52
2018-11-11T00:46:15.722Z,995.46
2018-11-11T00:46:56.133Z,995.49
2018-11-11T00:47:36.506Z,995.5
2018-11-11T00:48:17.123Z,995.45
2018-11-11T00:48:57.587Z,995.46
2018-11-11T00:49:38.421Z,995.5
2018-11-11T00:50:18.565Z,995.54
2018-11-11T00:50:59.374Z,995.51
2018-11-11T00:51:39.868Z,995.56
2018-11-11T00:52:20.408Z,995.66
2018-11-11T00:53:00.901Z,995.54
2018-11-11T00:55:19.922Z,995.58
2018-11-11T00:56:02.622Z,995.62
2018-11-11T00:56:43.056Z,995.54
2018-11-11T00:57:23.449Z,995.48
2018-11-11T00:58:03.945Z,995.55
2018-11-11T00:58:44.356Z,995.54
2018-11-11T00:59:24.715Z,995.59
2018-11-11T01:00:05.276Z,995.57
2018-11-11T01:00:45.952Z,995.59
2018-11-11T01:01:26.675Z,995.64
2018-11-11T01:02:07.192Z,995.51
2018-11-11T01:02:47.719Z,995.6
2018-11-11T01:03:28.108Z,995.6
2018-11-11T01:04:08.589Z,995.55
2018-11-11T01:04:49.463Z,995.63
2018-11-11T01:05:29.939Z,995.65
2018-11-11T01:06:10.440Z,995.58
2018-11-11T01:06:50.793Z,995.63
2018-11-11T01:07:31.273Z,995.59
2018-11-11T01:08:11.872Z,995.55
2018-11-11T01:08:52.292Z,995.53
2018-11-11T01:09:32.749Z,995.47
2018-11-11T01:11:32.634Z,995.45
2018-11-11T01:12:13.215Z,995.44
2018-11-11T01:12:53.975Z,995.49
2018-11-11T01:13:34.501Z,995.42
2018-11-11T01:14:14.883Z,995.45
2018-11-11T01:14:55.236Z,995.4
2018-11-11T01:15:35.625Z,995.4
2018-11-11T01:16:16.131Z,995.43
2018-11-11T01:16:56.529Z,995.4
2018-11-11T01:17:36.908Z,995.43
2018-11-11T01:18:17.253Z,995.44
2018-11-11T01:18:57.604Z,995.4
2018-11-11T01:19:38.017Z,995.43
2018-11-11T01:20:18.466Z,995.46
2018-11-11T01:20:58.898Z,995.45
2018-11-11T01:21:39.216Z,995.44
2018-11-11T01:22:19.638Z,995.44
2018-11-11T01:23:00.041Z,995.38
2018-11-11T01:23:40.493Z,995.43
2018-11-11T01:24:20.922Z,995.43
2018-11-11T01:25:01.646Z,995.39
2018-11-11T01:25:41.904Z,995.47
2018-11-11T01:26:22.415Z,995.38
2018-11-11T01:27:02.858Z,995.4
2018-11-11T01:27:43.370Z,995.4
2018-11-11T01:28:23.799Z,995.47
2018-11-11T01:29:04.210Z,995.41
2018-11-11T01:29:44.599Z,995.4
2018-11-11T01:30:25.054Z,995.32
2018-11-11T01:31:05.493Z,995.3
2018-11-11T01:31:45.889Z,995.29
2018-11-11T01:32:26.331Z,995.37
2018-11-11T01:33:06.854Z,995.38
2018-11-11T01:33:47.459Z,995.37
2018-11-11T01:34:27.803Z,995.43
2018-11-11T01:35:08.281Z,995.39
2018-11-11T01:35:48.651Z,995.47
2018-11-11T01:36:29.361Z,995.55
2018-11-11T01:37:09.593Z,995.43
2018-11-11T01:37:49.958Z,995.39
2018-11-11T01:38:30.371Z,995.4
2018-11-11T01:39:10.756Z,995.42
2018-11-11T01:39:51.207Z,995.4
2018-11-11T01:40:31.540Z,995.37
2018-11-11T01:41:12.133Z,995.43
2018-11-11T01:41:52.587Z,995.47
2018-11-11T01:42:32.921Z,995.45
2018-11-11T01:43:13.273Z,995.47
2018-11-11T01:43:53.792Z,995.54
2018-11-11T01:44:34.472Z,995.49
2018-11-11T01:45:14.988Z,995.54
2018-11-11T01:45:55.606Z,995.48
2018-11-11T01:46:36.180Z,995.56
2018-11-11T01:47:16.658Z,995.52
2018-11-11T01:47:57.064Z,995.5
2018-11-11T01:48:37.456Z,995.42
2018-11-11T01:49:17.928Z,995.43
2018-11-11T01:49:58.404Z,995.45
2018-11-11T01:50:38.792Z,995.44
2018-11-11T01:51:19.182Z,995.49
2018-11-11T01:51:59.635Z,995.48
2018-11-11T01:52:40.045Z,995.5
2018-11-11T01:53:20.562Z,995.47
2018-11-11T01:54:00.848Z,995.46
2018-11-11T01:54:41.407Z,995.49
2018-11-11T01:55:21.778Z,995.6
2018-11-11T01:56:02.072Z,995.48
2018-11-11T01:56:42.494Z,995.48
2018-11-11T01:57:22.871Z,995.48
2018-11-11T01:58:03.330Z,995.53
2018-11-11T01:58:43.731Z,995.49
2018-11-11T01:59:24.216Z,995.45
2018-11-11T02:00:04.602Z,995.38
2018-11-11T02:00:45.012Z,995.39
2018-11-11T02:01:25.513Z,995.45
2018-11-11T02:02:05.824Z,995.43
2018-11-11T02:02:46.243Z,995.38
2018-11-11T02:03:26.735Z,995.39
2018-11-11T02:04:07.243Z,995.42
2018-11-11T02:04:47.867Z,995.43
2018-11-11T02:05:28.244Z,995.46
2018-11-11T02:06:08.677Z,995.49
2018-11-11T02:06:49.152Z,995.47
2018-11-11T02:07:29.696Z,995.47
2018-11-11T02:08:10.116Z,995.46
2018-11-11T02:08:50.510Z,995.47
2018-11-11T02:09:30.888Z,995.6
2018-11-11T02:10:11.298Z,995.51
2018-11-11T02:10:51.808Z,995.58
2018-11-11T02:11:32.254Z,995.63
2018-11-11T02:12:12.632Z,995.56
2018-11-11T02:12:53.026Z,995.59
2018-11-11T02:13:33.437Z,995.53
2018-11-11T02:14:13.809Z,995.47
2018-11-11T02:14:54.259Z,995.53
2018-11-11T02:15:34.734Z,995.47
2018-11-11T02:16:15.121Z,995.48
2018-11-11T02:16:55.593Z,995.52
2018-11-11T02:17:35.939Z,995.46
2018-11-11T02:18:16.386Z,995.5
2018-11-11T02:18:56.798Z,995.51
2018-11-11T02:19:37.114Z,995.45
2018-11-11T02:20:17.695Z,995.45
2018-11-11T02:20:58.176Z,995.42
2018-11-11T02:21:38.581Z,995.47
2018-11-11T02:22:18.866Z,995.41
2018-11-11T02:22:59.373Z,995.39
2018-11-11T02:23:39.821Z,995.38
2018-11-11T02:24:20.180Z,995.43
2018-11-11T02:25:00.624Z,995.45
2018-11-11T02:25:41.005Z,995.45
2018-11-11T02:26:21.431Z,995.51
2018-11-11T02:27:01.815Z,995.45
2018-11-11T02:27:42.286Z,995.54
2018-11-11T02:28:22.709Z,995.47
2018-11-11T02:29:03.166Z,995.42
2018-11-11T02:29:43.523Z,995.49
2018-11-11T02:30:24.035Z,995.5
2018-11-11T02:31:04.331Z,995.48
2018-11-11T02:31:44.725Z,995.46
2018-11-11T02:32:25.201Z,995.39
2018-11-11T02:33:05.639Z,995.41
2018-11-11T02:33:45.974Z,995.42
2018-11-11T02:34:26.381Z,995.43
2018-11-11T02:35:06.768Z,995.51
2018-11-11T02:35:47.199Z,995.45
2018-11-11T02:36:27.599Z,995.44
2018-11-11T02:37:08.067Z,995.47
2018-11-11T02:37:48.494Z,995.48
2018-11-11T02:38:28.918Z,995.43
2018-11-11T02:39:09.357Z,995.41
2018-11-11T02:39:49.957Z,995.44
2018-11-11T02:40:30.224Z,995.51
2018-11-11T02:41:10.704Z,995.49
2018-11-11T02:41:51.109Z,995.43
2018-11-11T02:42:31.669Z,995.43
2018-11-11T02:43:11.911Z,995.44
2018-11-11T02:43:52.402Z,995.47
2018-11-11T02:44:32.840Z,995.46
2018-11-11T02:45:13.283Z,995.45
2018-11-11T02:45:53.678Z,995.44
2018-11-11T02:46:34.383Z,995.48
2018-11-11T02:47:14.729Z,995.45
2018-11-11T02:47:55.164Z,995.42
2018-11-11T02:48:35.662Z,995.43
2018-11-11T02:49:15.987Z,995.37
2018-11-11T02:49:56.460Z,995.39
2018-11-11T02:50:36.871Z,995.34
2018-11-11T02:51:17.216Z,995.34
2018-11-11T02:51:58.031Z,995.39
2018-11-11T02:52:38.505Z,995.3
2018-11-11T02:53:18.885Z,995.35
2018-11-11T02:53:59.231Z,995.36
2018-11-11T02:54:39.727Z,995.37
2018-11-11T02:55:20.110Z,995.36
2018-11-11T02:56:00.545Z,995.41
2018-11-11T02:56:40.912Z,995.43
2018-11-11T02:57:21.453Z,995.4
2018-11-11T02:58:01.793Z,995.33
2018-11-11T02:58:42.424Z,995.45
2018-11-11T02:59:22.895Z,995.42
2018-11-11T03:00:03.476Z,995.38
2018-11-11T03:00:43.659Z,995.39
2018-11-11T03:01:24.091Z,995.38
2018-11-11T03:02:04.607Z,995.38
2018-11-11T03:02:45.023Z,995.35
2018-11-11T03:03:25.674Z,995.38
2018-11-11T03:04:06.031Z,995.37
2018-11-11T03:04:46.417Z,995.35
2018-11-11T03:05:26.833Z,995.33
2018-11-11T03:06:07.227Z,995.34
2018-11-11T03:06:47.813Z,995.3
2018-11-11T03:07:28.329Z,995.25
2018-11-11T03:08:08.665Z,995.25
2018-11-11T03:08:49.060Z,995.23
2018-11-11T03:09:29.451Z,995.26
2018-11-11T03:10:09.879Z,995.29
2018-11-11T03:10:50.340Z,995.23
2018-11-11T03:11:30.652Z,995.21
2018-11-11T03:12:11.131Z,995.2
2018-11-11T03:12:51.440Z,995.23
2018-11-11T03:13:31.854Z,995.29
2018-11-11T03:14:12.252Z,995.32
2018-11-11T03:14:52.692Z,995.24
2018-11-11T03:15:33.160Z,995.27
2018-11-11T03:16:13.529Z,995.28
2018-11-11T03:16:54.050Z,995.32
2018-11-11T03:17:34.417Z,995.24
2018-11-11T03:18:14.869Z,995.28
2018-11-11T03:18:55.311Z,995.27
2018-11-11T03:19:35.688Z,995.25
2018-11-11T03:20:16.068Z,995.25
2018-11-11T03:22:09.548Z,995.16
2018-11-11T03:22:49.336Z,995.16
2018-11-11T03:23:29.735Z,995.2
2018-11-11T03:24:10.157Z,995.12
2018-11-11T03:24:50.539Z,995.26
2018-11-11T03:25:30.908Z,995.15
2018-11-11T03:26:11.344Z,995.22
2018-11-11T03:26:51.685Z,995.18
2018-11-11T03:27:32.116Z,995.21
2018-11-11T03:28:12.642Z,995.23
2018-11-11T03:30:40.913Z,995.24
2018-11-11T03:31:21.238Z,995.2
2018-11-11T03:32:01.834Z,995.19
2018-11-11T03:32:42.071Z,995.15
2018-11-11T03:33:22.503Z,995.19
2018-11-11T03:34:02.893Z,995.19
2018-11-11T03:34:43.451Z,995.29
2018-11-11T03:35:23.714Z,995.22
2018-11-11T03:36:04.220Z,995.21
2018-11-11T03:36:44.524Z,995.15
2018-11-11T03:37:24.945Z,995.2
2018-11-11T03:38:05.422Z,995.24
2018-11-11T03:38:45.816Z,995.22
2018-11-11T03:39:26.272Z,995.21
2018-11-11T03:40:06.734Z,995.3
2018-11-11T03:40:47.423Z,995.23
2018-11-11T03:41:27.595Z,995.21
2018-11-11T03:42:07.984Z,995.22
2018-11-11T03:42:48.416Z,995.23
2018-11-11T03:43:28.799Z,995.26
2018-11-11T03:44:09.274Z,995.24
2018-11-11T03:44:49.608Z,995.25
2018-11-11T03:45:29.975Z,995.21
2018-11-11T03:46:10.402Z,995.2
2018-11-11T03:46:50.800Z,995.22
2018-11-11T03:47:31.253Z,995.24
2018-11-11T03:48:11.686Z,995.28
2018-11-11T03:48:52.085Z,995.29
2018-11-11T03:49:32.490Z,995.24
2018-11-11T03:50:12.926Z,995.23
2018-11-11T03:50:53.278Z,995.23
2018-11-11T03:51:33.681Z,995.27
2018-11-11T03:52:14.125Z,995.29
2018-11-11T03:52:54.605Z,995.25
2018-11-11T03:53:34.974Z,995.27
2018-11-11T03:54:15.505Z,995.33
2018-11-11T03:54:55.785Z,995.31
2018-11-11T03:55:36.133Z,995.34
2018-11-11T03:56:16.598Z,995.28
2018-11-11T03:56:56.991Z,995.29
2018-11-11T03:57:37.407Z,995.3
2018-11-11T03:58:17.794Z,995.35
2018-11-11T03:58:58.261Z,995.3
2018-11-11T03:59:38.637Z,995.27
2018-11-11T04:00:19.036Z,995.27
2018-11-11T04:00:59.528Z,995.16
2018-11-11T04:01:39.960Z,995.13
2018-11-11T04:02:20.382Z,995.13
2018-11-11T04:03:00.778Z,995.05
2018-11-11T04:03:41.303Z,995.05
2018-11-11T04:04:21.662Z,995.07
2018-11-11T04:05:02.106Z,995.11
2018-11-11T04:05:42.483Z,995.13
2018-11-11T04:06:22.928Z,995.18
2018-11-11T04:07:03.399Z,995.22
2018-11-11T04:07:43.782Z,995.17
2018-11-11T04:08:24.237Z,995.22
2018-11-11T04:09:04.583Z,995.24
2018-11-11T04:09:45.138Z,995.34
2018-11-11T04:10:25.714Z,995.34
2018-11-11T04:11:05.934Z,995.33
2018-11-11T04:11:46.339Z,995.31
2018-11-11T04:12:26.699Z,995.36
2018-11-11T04:13:07.093Z,995.36
2018-11-11T04:13:47.520Z,995.41
2018-11-11T04:14:27.905Z,995.42
2018-11-11T04:15:08.452Z,995.42
2018-11-11T04:15:48.933Z,995.44
2018-11-11T04:16:29.313Z,995.41
2018-11-11T04:17:09.752Z,995.39
2018-11-11T04:17:50.140Z,995.4
2018-11-11T04:18:30.833Z,995.41
2018-11-11T04:19:11.114Z,995.38
2018-11-11T04:21:39.225Z,995.39
2018-11-11T04:22:19.733Z,995.39
2018-11-11T04:22:59.911Z,995.39
2018-11-11T04:23:40.346Z,995.37
2018-11-11T04:24:20.893Z,995.33
2018-11-11T04:25:01.228Z,995.36
2018-11-11T04:25:41.651Z,995.4
2018-11-11T04:26:22.025Z,995.4
2018-11-11T04:27:02.452Z,995.43
2018-11-11T04:27:42.953Z,995.5
2018-11-11T05:08:07.081Z,995.55
2018-11-11T05:08:47.760Z,995.51
2018-11-11T05:09:27.980Z,995.53
2018-11-11T05:10:08.489Z,995.5
2018-11-11T05:10:49.149Z,995.48
2018-11-11T05:11:29.516Z,995.52
2018-11-11T05:12:10.161Z,995.54
2018-11-11T05:12:50.455Z,995.5
2018-11-11T05:13:30.852Z,995.45
2018-11-11T05:14:11.306Z,995.47
2018-11-11T05:14:51.752Z,995.48
2018-11-11T05:15:32.242Z,995.54
2018-11-11T05:16:12.687Z,995.49
2018-11-11T05:16:53.015Z,995.54
2018-11-11T05:17:33.477Z,995.5
2018-11-11T05:18:13.917Z,995.52
2018-11-11T05:18:54.359Z,995.53
2018-11-11T05:19:34.763Z,995.56
2018-11-11T05:20:15.208Z,995.44
2018-11-11T05:20:55.583Z,995.47
2018-11-11T05:21:36.795Z,995.39
2018-11-11T05:22:17.069Z,995.47
2018-11-11T05:22:57.625Z,995.42
2018-11-11T05:23:37.941Z,995.4
2018-11-11T05:24:18.380Z,995.41
2018-11-11T05:24:58.833Z,995.43
2018-11-11T05:25:39.176Z,995.49
2018-11-11T05:26:19.623Z,995.46
2018-11-11T05:27:00.012Z,995.52
2018-11-11T05:27:40.404Z,995.5
2018-11-11T05:28:20.826Z,995.5
2018-11-11T05:29:01.301Z,995.56
2018-11-11T05:29:41.974Z,995.6
2018-11-11T05:30:22.397Z,995.62
2018-11-11T05:31:02.803Z,995.6
2018-11-11T05:31:43.262Z,995.69
2018-11-11T05:32:23.625Z,995.71
2018-11-11T05:33:04.080Z,995.62
2018-11-11T05:33:44.560Z,995.6
2018-11-11T05:34:24.983Z,995.64
2018-11-11T05:35:05.420Z,995.64
2018-11-11T05:35:46.200Z,995.61
2018-11-11T05:36:26.364Z,995.58
2018-11-11T05:37:06.792Z,995.61
2018-11-11T05:37:47.240Z,995.58
2018-11-11T05:38:27.634Z,995.67
2018-11-11T05:39:08.085Z,995.61
2018-11-11T05:39:48.710Z,995.6
2018-11-11T05:40:29.003Z,995.59
2018-11-11T05:41:09.436Z,995.67
2018-11-11T05:41:49.809Z,995.63
2018-11-11T05:42:30.173Z,995.66
2018-11-11T05:43:10.595Z,995.61
2018-11-11T05:43:50.997Z,995.59
2018-11-11T05:44:31.408Z,995.6
2018-11-11T05:45:12.246Z,995.64
2018-11-11T05:45:52.383Z,995.64
2018-11-11T05:46:32.847Z,995.6
2018-11-11T05:47:13.246Z,995.63
2018-11-11T05:47:53.708Z,995.58
2018-11-11T05:48:34.316Z,995.56
2018-11-11T05:49:14.787Z,995.7
2018-11-11T05:49:55.181Z,995.67
2018-11-11T05:50:35.650Z,995.57
2018-11-11T05:51:16.108Z,995.6
2018-11-11T05:51:56.423Z,995.62
2018-11-11T05:52:36.878Z,995.58
2018-11-11T05:53:17.316Z,995.59
2018-11-11T05:53:57.684Z,995.63
2018-11-11T05:54:38.132Z,995.65
2018-11-11T05:55:18.478Z,995.63
2018-11-11T05:55:58.990Z,995.66
2018-11-11T05:56:39.424Z,995.68
2018-11-11T05:57:19.858Z,995.66
2018-11-11T05:58:00.216Z,995.65
2018-11-11T05:58:40.678Z,995.72
2018-11-11T05:59:21.166Z,995.67
2018-11-11T06:00:01.610Z,995.7
2018-11-11T06:00:42.007Z,995.69
2018-11-11T06:01:22.432Z,995.69
2018-11-11T06:03:15.811Z,995.66
2018-11-11T06:03:55.990Z,995.61
2018-11-11T06:04:36.366Z,995.62
2018-11-11T06:05:16.759Z,995.66
2018-11-11T06:05:57.169Z,995.6
2018-11-11T06:06:37.620Z,995.58
2018-11-11T06:07:18.181Z,995.62
2018-11-11T06:07:58.539Z,995.55
2018-11-11T06:08:38.960Z,995.56
2018-11-11T06:09:19.474Z,995.58
2018-11-11T06:11:35.069Z,995.6
2018-11-11T06:12:15.451Z,995.58
2018-11-11T06:12:55.871Z,995.62
2018-11-11T06:13:36.211Z,995.61
2018-11-11T06:14:16.655Z,995.6
2018-11-11T06:14:57.061Z,995.58
2018-11-11T06:15:37.601Z,995.59
2018-11-11T06:16:18.035Z,995.6
2018-11-11T06:16:58.416Z,995.64
2018-11-11T06:17:38.829Z,995.58
2018-11-11T06:18:19.305Z,995.57
2018-11-11T06:18:59.715Z,995.63
2018-11-11T06:19:40.105Z,995.61
2018-11-11T06:20:20.404Z,995.62
2018-11-11T06:22:33.175Z,995.62
2018-11-11T06:23:13.578Z,995.65
2018-11-11T06:23:53.963Z,995.66
2018-11-11T06:24:34.403Z,995.67
2018-11-11T06:25:14.810Z,995.65
2018-11-11T06:25:55.220Z,995.71
2018-11-11T06:26:35.623Z,995.66
2018-11-11T06:27:16.043Z,995.67
2018-11-11T06:27:56.473Z,995.69
2018-11-11T06:28:36.856Z,995.69
2018-11-11T06:29:17.267Z,995.69
2018-11-11T06:29:57.653Z,995.72
2018-11-11T06:30:38.050Z,995.78
2018-11-11T06:31:18.541Z,995.74
2018-11-11T06:31:58.934Z,995.71
2018-11-11T06:32:39.329Z,995.77
2018-11-11T06:33:19.682Z,995.78
2018-11-11T06:34:00.138Z,995.79
2018-11-11T06:34:40.561Z,995.81
2018-11-11T06:35:20.931Z,995.86
2018-11-11T06:36:01.402Z,995.79
2018-11-11T06:36:41.744Z,995.83
2018-11-11T06:37:22.194Z,995.87
2018-11-11T06:38:02.607Z,995.82
2018-11-11T06:38:43.058Z,995.93
2018-11-11T06:39:23.415Z,995.89
2018-11-11T06:40:03.835Z,995.86
2018-11-11T06:40:44.267Z,995.87
2018-11-11T06:41:24.672Z,995.93
2018-11-11T06:42:05.063Z,995.93
2018-11-11T06:42:45.532Z,995.96
2018-11-11T06:43:25.867Z,995.93
2018-11-11T06:44:06.272Z,995.92
2018-11-11T06:44:46.689Z,995.94
2018-11-11T06:45:27.117Z,995.97
2018-11-11T06:46:07.582Z,996
2018-11-11T06:46:47.969Z,996.03
2018-11-11T06:47:28.353Z,996.07
2018-11-11T06:48:08.791Z,996.16
2018-11-11T06:48:49.134Z,996.17
2018-11-11T06:49:29.552Z,996.14
2018-11-11T06:50:10.005Z,996.13
2018-11-11T06:50:50.345Z,996.1
2018-11-11T06:53:03.233Z,996.14
2018-11-11T06:53:43.685Z,996.13
2018-11-11T06:54:24.151Z,996.16
2018-11-11T06:55:04.495Z,996.16
2018-11-11T06:55:45.006Z,996.14
2018-11-11T06:56:25.346Z,996.19
2018-11-11T06:57:05.720Z,996.15
2018-11-11T06:57:46.159Z,996.17
2018-11-11T06:58:26.568Z,996.17
2018-11-11T06:59:06.980Z,996.19
2018-11-11T06:59:47.432Z,996.2
2018-11-11T07:00:27.951Z,996.24
2018-11-11T07:01:08.349Z,996.3
2018-11-11T07:01:48.842Z,996.36
2018-11-11T07:02:29.285Z,996.23
2018-11-11T07:03:09.672Z,996.32
2018-11-11T07:03:50.053Z,996.39
2018-11-11T07:04:30.458Z,996.31
2018-11-11T07:05:10.936Z,996.34
2018-11-11T07:05:51.641Z,996.34
2018-11-11T07:06:31.887Z,996.42
2018-11-11T07:07:12.511Z,996.36
2018-11-11T07:07:53.153Z,996.42
2018-11-11T07:08:33.332Z,996.46
2018-11-11T07:10:27.635Z,996.45
2018-11-11T07:11:10.880Z,996.41
2018-11-11T07:11:51.296Z,996.5
2018-11-11T07:12:31.675Z,996.55
2018-11-11T07:13:12.307Z,996.5
2018-11-11T07:13:52.515Z,996.59
2018-11-11T07:14:33.135Z,996.53
2018-11-11T07:15:13.635Z,996.49
2018-11-11T07:15:54.007Z,996.49
2018-11-11T07:16:34.434Z,996.49
2018-11-11T07:17:14.835Z,996.49
2018-11-11T07:17:55.396Z,996.5
2018-11-11T07:18:35.772Z,996.52
2018-11-11T07:19:16.286Z,996.54
2018-11-11T07:19:56.660Z,996.53
2018-11-11T07:20:37.552Z,996.53
2018-11-11T07:21:17.920Z,996.63
2018-11-11T07:21:58.348Z,996.59
2018-11-11T07:22:38.815Z,996.58
2018-11-11T07:23:19.229Z,996.55
2018-11-11T07:23:59.646Z,996.55
2018-11-11T07:24:40.670Z,996.62
2018-11-11T07:25:21.252Z,996.62
2018-11-11T07:26:02.236Z,996.65
2018-11-11T07:26:42.540Z,996.67
2018-11-11T07:27:22.952Z,996.69
2018-11-11T07:28:03.353Z,996.75
2018-11-11T07:28:43.770Z,996.75
2018-11-11T07:29:24.230Z,996.76
2018-11-11T07:30:04.567Z,996.82
2018-11-11T07:30:45.079Z,996.84
2018-11-11T07:31:25.762Z,996.84
2018-11-11T07:32:06.163Z,996.87
2018-11-11T07:32:46.627Z,996.85
2018-11-11T07:33:27.051Z,996.87
2018-11-11T07:34:07.475Z,996.87
2018-11-11T07:34:47.884Z,996.9
2018-11-11T07:35:28.406Z,996.91
2018-11-11T07:36:08.851Z,996.93
2018-11-11T07:36:49.655Z,996.89
2018-11-11T07:37:29.964Z,996.87
2018-11-11T07:38:10.386Z,996.9
2018-11-11T07:38:50.765Z,996.89
2018-11-11T07:39:31.199Z,996.86
2018-11-11T07:40:11.819Z,996.85
2018-11-11T07:40:52.278Z,996.84
2018-11-11T07:41:32.657Z,996.87
2018-11-11T07:42:13.153Z,996.92
2018-11-11T07:42:53.510Z,996.82
2018-11-11T07:43:33.911Z,996.83
2018-11-11T07:44:14.377Z,996.82
2018-11-11T07:44:54.802Z,996.84
2018-11-11T07:45:35.243Z,996.86
2018-11-11T07:46:15.645Z,996.91
2018-11-11T07:46:56.019Z,996.93
2018-11-11T07:47:36.470Z,996.98
2018-11-11T07:48:16.859Z,996.93
2018-11-11T07:48:57.465Z,996.96
2018-11-11T07:49:37.837Z,996.95
2018-11-11T07:50:18.345Z,997.02
2018-11-11T07:50:58.783Z,996.92
2018-11-11T07:51:39.268Z,996.97
2018-11-11T07:52:19.647Z,997.04
2018-11-11T07:53:00.144Z,996.97
2018-11-11T07:53:40.534Z,997
2018-11-11T07:54:21.029Z,997.01
2018-11-11T07:55:01.615Z,997
2018-11-11T07:55:41.869Z,996.98
2018-11-11T07:56:22.310Z,997.02
2018-11-11T07:57:02.721Z,997.01
2018-11-11T07:57:43.353Z,997
2018-11-11T07:58:23.707Z,996.95
2018-11-11T07:59:04.045Z,997.08
2018-11-11T07:59:44.760Z,997
2018-11-11T08:00:25.231Z,996.99
2018-11-11T08:01:05.587Z,997.01
2018-11-11T08:01:46.086Z,997.02
2018-11-11T08:02:26.582Z,996.96
2018-11-11T08:03:06.883Z,997
2018-11-11T08:05:36.246Z,996.96
2018-11-11T08:06:17.925Z,996.95
2018-11-11T08:06:58.410Z,996.93
2018-11-11T08:07:38.992Z,996.9
2018-11-11T08:08:19.354Z,996.87
2018-11-11T08:08:59.824Z,996.89
2018-11-11T08:09:40.150Z,996.9
2018-11-11T08:10:20.602Z,996.81
2018-11-11T08:11:01.074Z,996.83
2018-11-11T08:11:41.389Z,996.8
2018-11-11T08:12:22.774Z,996.81
2018-11-11T08:13:03.185Z,996.82
2018-11-11T08:13:43.466Z,996.84
2018-11-11T08:14:23.924Z,996.82
2018-11-11T08:15:04.346Z,996.86
2018-11-11T08:15:44.769Z,996.81
2018-11-11T08:16:25.220Z,996.79
2018-11-11T08:17:05.602Z,996.78
2018-11-11T08:17:46.004Z,996.85
2018-11-11T08:18:26.898Z,996.84
2018-11-11T08:19:07.021Z,996.89
2018-11-11T08:19:47.550Z,996.9
2018-11-11T08:20:28.189Z,996.91
2018-11-11T08:21:08.418Z,996.97
2018-11-11T08:23:23.365Z,997.04
2018-11-11T08:24:03.642Z,997.1
2018-11-11T08:24:44.066Z,997.07
2018-11-11T08:25:24.498Z,997.09
2018-11-11T08:26:04.911Z,997.08
2018-11-11T08:26:45.358Z,997.08
2018-11-11T08:27:25.726Z,997.1
2018-11-11T08:28:06.248Z,997.15
2018-11-11T08:28:46.830Z,997.17
2018-11-11T08:29:27.640Z,997.18
2018-11-11T08:30:08.041Z,997.21
2018-11-11T08:30:48.375Z,997.24
2018-11-11T08:31:28.770Z,997.23
2018-11-11T08:32:09.256Z,997.19
2018-11-11T08:32:49.680Z,997.2
2018-11-11T08:33:30.123Z,997.21
2018-11-11T08:34:10.612Z,997.27
2018-11-11T08:34:51.218Z,997.26
2018-11-11T08:35:31.579Z,997.27
2018-11-11T08:36:12.034Z,997.22
2018-11-11T08:36:52.517Z,997.29
2018-11-11T08:37:32.836Z,997.28
2018-11-11T08:38:13.350Z,997.29
2018-11-11T08:38:54.154Z,997.33
2018-11-11T08:39:34.514Z,997.38
2018-11-11T08:40:14.888Z,997.37
2018-11-11T08:40:55.225Z,997.4
2018-11-11T08:41:35.958Z,997.38
2018-11-11T08:42:16.286Z,997.41
2018-11-11T08:42:56.999Z,997.47
2018-11-11T08:43:37.431Z,997.56
2018-11-11T08:44:17.825Z,997.51
2018-11-11T08:44:58.401Z,997.47
2018-11-11T08:45:38.852Z,997.48
2018-11-11T08:46:19.277Z,997.5
2018-11-11T08:46:59.828Z,997.46
2018-11-11T08:47:41.008Z,997.54
2018-11-11T08:48:21.565Z,997.51
2018-11-11T08:49:01.887Z,997.47
2018-11-11T08:49:42.410Z,997.55
2018-11-11T08:50:22.789Z,997.54
2018-11-11T08:51:03.189Z,997.61
2018-11-11T08:51:43.600Z,997.64
2018-11-11T08:52:24.059Z,997.62
2018-11-11T08:53:04.499Z,997.4
2018-11-11T08:53:45.107Z,997.63
2018-11-11T08:54:25.428Z,997.65
2018-11-11T08:55:05.821Z,997.63
2018-11-11T08:57:19.685Z,997.55
2018-11-11T08:57:59.982Z,997.58
2018-11-11T08:58:40.711Z,997.67
2018-11-11T08:59:20.989Z,997.64
2018-11-11T09:00:01.407Z,997.54
2018-11-11T09:00:41.860Z,997.56
2018-11-11T09:01:22.317Z,997.53
2018-11-11T09:02:02.817Z,997.54
2018-11-11T09:02:43.520Z,997.58
2018-11-11T09:03:24.370Z,997.54
2018-11-11T09:04:05.514Z,997.54
2018-11-11T09:04:46.129Z,997.56
2018-11-11T09:05:26.386Z,997.58
2018-11-11T09:06:06.925Z,997.64
2018-11-11T09:06:47.469Z,997.53
2018-11-11T09:07:27.946Z,997.48
2018-11-11T09:08:08.336Z,997.52
2018-11-11T09:08:48.791Z,997.59
2018-11-11T09:09:29.251Z,997.54
2018-11-11T09:10:09.913Z,997.61
2018-11-11T09:10:50.274Z,997.57
2018-11-11T09:11:30.927Z,997.46
2018-11-11T09:12:11.896Z,997.46
2018-11-11T09:12:52.406Z,997.4
2018-11-11T09:13:33.269Z,997.48
2018-11-11T09:14:13.516Z,997.46
2018-11-11T09:14:54.210Z,997.49
2018-11-11T09:15:34.580Z,997.43
2018-11-11T09:16:14.989Z,997.52
2018-11-11T09:16:55.466Z,997.48
2018-11-11T09:17:35.906Z,997.48
2018-11-11T09:18:16.323Z,997.48
2018-11-11T09:18:56.694Z,997.44
2018-11-11T09:19:37.648Z,997.45
2018-11-11T09:20:17.926Z,997.49
2018-11-11T09:20:58.512Z,997.41
2018-11-11T09:21:38.907Z,997.5
2018-11-11T09:22:19.589Z,997.58
2018-11-11T09:23:00.014Z,997.59
2018-11-11T09:23:40.621Z,997.59
2018-11-11T09:24:21.280Z,997.6
2018-11-11T09:25:01.826Z,997.54
2018-11-11T09:25:42.093Z,997.61
2018-11-11T09:26:22.527Z,997.56
2018-11-11T09:27:03.150Z,997.53
2018-11-11T09:27:43.611Z,997.46
2018-11-11T09:28:24.134Z,997.5